sensor_id;sensor_type;location;lat;lon;timestamp;pressure;altitude;pressure_sealevel;temperature;humidity
78986;BME280;68384;55.750;48.746;2024-01-30T00:00:44;99625.72;;;-5.59;87.90
78986;BME280;68384;55.750;48.746;2024-01-30T00:01:46;99636.91;;;-5.56;87.44
78986;BME280;68384;55.750;48.746;2024-01-30T00:02:49;99628.31;;;-5.53;87.82
78986;BME280;68384;55.750;48.746;2024-01-30T00:03:51;99634.34;;;-5.56;87.58
78986;BME280;68384;55.750;48.746;2024-01-30T00:04:53;99634.34;;;-5.56;87.84
78986;BME280;68384;55.750;48.746;2024-01-30T00:05:55;99618.84;;;-5.57;87.97
78986;BME280;68384;55.750;48.746;2024-01-30T00:07:00;99624.88;;;-5.55;87.40
78986;BME280;68384;55.750;48.746;2024-01-30T00:08:02;99619.72;;;-5.55;87.35
78986;BME280;68384;55.750;48.746;2024-01-30T00:09:05;99618.84;;;-5.57;87.31
78986;BME280;68384;55.750;48.746;2024-01-30T00:10:07;99611.13;;;-5.56;87.74
78986;BME280;68384;55.750;48.746;2024-01-30T00:11:09;99603.38;;;-5.56;87.34
78986;BME280;68384;55.750;48.746;2024-01-30T00:12:11;99605.09;;;-5.58;87.34
78986;BME280;68384;55.750;48.746;2024-01-30T00:13:14;99615.41;;;-5.55;87.70
78986;BME280;68384;55.750;48.746;2024-01-30T00:14:18;99606.81;;;-5.58;87.06
78986;BME280;68384;55.750;48.746;2024-01-30T00:15:20;99603.38;;;-5.62;87.14
78986;BME280;68384;55.750;48.746;2024-01-30T00:16:23;99600.78;;;-5.62;86.59
78986;BME280;68384;55.750;48.746;2024-01-30T00:17:28;99598.22;;;-5.62;87.10
78986;BME280;68384;55.750;48.746;2024-01-30T00:18:30;99592.19;;;-5.61;86.08
78986;BME280;68384;55.750;48.746;2024-01-30T00:19:33;99597.34;;;-5.64;86.58
78986;BME280;68384;55.750;48.746;2024-01-30T00:20:35;99592.19;;;-5.64;86.07
78986;BME280;68384;55.750;48.746;2024-01-30T00:21:37;99592.22;;;-5.65;85.92
78986;BME280;68384;55.750;48.746;2024-01-30T00:22:39;99597.34;;;-5.64;86.34
78986;BME280;68384;55.750;48.746;2024-01-30T00:23:42;99565.53;;;-5.63;86.26
78986;BME280;68384;55.750;48.746;2024-01-30T00:24:44;99594.78;;;-5.59;85.67
78986;BME280;68384;55.750;48.746;2024-01-30T00:25:46;99596.50;;;-5.60;85.09
78986;BME280;68384;55.750;48.746;2024-01-30T00:26:48;99599.94;;;-5.59;85.54
78986;BME280;68384;55.750;48.746;2024-01-30T00:27:50;99599.94;;;-5.58;85.53
78986;BME280;68384;55.750;48.746;2024-01-30T00:28:53;99589.63;;;-5.59;85.19
78986;BME280;68384;55.750;48.746;2024-01-30T00:29:55;99598.22;;;-5.59;85.60
78986;BME280;68384;55.750;48.746;2024-01-30T00:30:57;99595.63;;;-5.59;85.51
78986;BME280;68384;55.750;48.746;2024-01-30T00:31:59;99587.91;;;-5.57;84.84
78986;BME280;68384;55.750;48.746;2024-01-30T00:33:02;99587.03;;;-5.55;85.55
78986;BME280;68384;55.750;48.746;2024-01-30T00:34:04;99594.78;;;-5.56;85.49
78986;BME280;68384;55.750;48.746;2024-01-30T00:35:06;99599.06;;;-5.58;85.72
78986;BME280;68384;55.750;48.746;2024-01-30T00:36:09;99605.09;;;-5.58;85.16
78986;BME280;68384;55.750;48.746;2024-01-30T00:37:12;99611.13;;;-5.56;84.69
78986;BME280;68384;55.750;48.746;2024-01-30T00:38:14;99599.94;;;-5.56;84.94
78986;BME280;68384;55.750;48.746;2024-01-30T00:39:16;99589.63;;;-5.56;84.89
78986;BME280;68384;55.750;48.746;2024-01-30T00:40:18;99587.03;;;-5.58;84.98
78986;BME280;68384;55.750;48.746;2024-01-30T00:41:20;99584.47;;;-5.55;84.81
78986;BME280;68384;55.750;48.746;2024-01-30T00:42:22;99578.44;;;-5.54;84.43
78986;BME280;68384;55.750;48.746;2024-01-30T00:43:25;99581.88;;;-5.51;84.50
78986;BME280;68384;55.750;48.746;2024-01-30T00:44:28;99581.03;;;-5.49;84.99
78986;BME280;68384;55.750;48.746;2024-01-30T00:45:30;99593.91;;;-5.49;84.90
78986;BME280;68384;55.750;48.746;2024-01-30T00:46:32;99581.03;;;-5.47;84.60
78986;BME280;68384;55.750;48.746;2024-01-30T00:47:35;99583.56;;;-5.44;84.33
78986;BME280;68384;55.750;48.746;2024-01-30T00:48:38;99568.09;;;-5.44;84.25
78986;BME280;68384;55.750;48.746;2024-01-30T00:49:40;99567.22;;;-5.45;84.04
78986;BME280;68384;55.750;48.746;2024-01-30T00:50:42;99564.66;;;-5.40;84.38
78986;BME280;68384;55.750;48.746;2024-01-30T00:51:45;99566.38;;;-5.39;83.94
78986;BME280;68384;55.750;48.746;2024-01-30T00:52:47;99564.66;;;-5.39;83.69
78986;BME280;68384;55.750;48.746;2024-01-30T00:53:49;99572.38;;;-5.39;84.00
78986;BME280;68384;55.750;48.746;2024-01-30T00:54:51;99562.06;;;-5.37;84.14
78986;BME280;68384;55.750;48.746;2024-01-30T00:55:54;99555.19;;;-5.41;83.49
78986;BME280;68384;55.750;48.746;2024-01-30T00:56:56;99544.03;;;-5.48;83.98
78986;BME280;68384;55.750;48.746;2024-01-30T00:57:58;99550.91;;;-5.45;84.09
78986;BME280;68384;55.750;48.746;2024-01-30T00:59:00;99553.47;;;-5.44;84.08
78986;BME280;68384;55.750;48.746;2024-01-30T01:00:03;99550.03;;;-5.44;83.86
78986;BME280;68384;55.750;48.746;2024-01-30T01:01:07;99551.75;;;-5.43;83.79
78986;BME280;68384;55.750;48.746;2024-01-30T01:02:10;99532.81;;;-5.44;83.67
78986;BME280;68384;55.750;48.746;2024-01-30T01:03:12;99544.00;;;-5.45;83.90
78986;BME280;68384;55.750;48.746;2024-01-30T01:04:16;99550.03;;;-5.44;84.07
78986;BME280;68384;55.750;48.746;2024-01-30T01:05:19;99547.44;;;-5.43;83.60
78986;BME280;68384;55.750;48.746;2024-01-30T01:06:21;99545.72;;;-5.41;83.74
78986;BME280;68384;55.750;48.746;2024-01-30T01:07:24;99538.84;;;-5.45;83.74
78986;BME280;68384;55.750;48.746;2024-01-30T01:08:26;99532.81;;;-5.42;84.01
78986;BME280;68384;55.750;48.746;2024-01-30T01:09:28;99538.84;;;-5.42;84.03
78986;BME280;68384;55.750;48.746;2024-01-30T01:10:30;99550.03;;;-5.41;83.07
78986;BME280;68384;55.750;48.746;2024-01-30T01:11:33;99538.84;;;-5.42;83.41
78986;BME280;68384;55.750;48.746;2024-01-30T01:12:35;99537.97;;;-5.42;83.69
78986;BME280;68384;55.750;48.746;2024-01-30T01:13:37;99543.13;;;-5.39;83.94
78986;BME280;68384;55.750;48.746;2024-01-30T01:14:39;99552.59;;;-5.41;83.22
78986;BME280;68384;55.750;48.746;2024-01-30T01:15:41;99550.03;;;-5.38;83.48
78986;BME280;68384;55.750;48.746;2024-01-30T01:16:43;99550.03;;;-5.37;83.21
78986;BME280;68384;55.750;48.746;2024-01-30T01:17:46;99538.84;;;-5.39;83.29
78986;BME280;68384;55.750;48.746;2024-01-30T01:18:48;99543.13;;;-5.38;83.19
78986;BME280;68384;55.750;48.746;2024-01-30T01:19:50;99539.69;;;-5.40;82.95
78986;BME280;68384;55.750;48.746;2024-01-30T01:20:52;99533.69;;;-5.37;83.06
78986;BME280;68384;55.750;48.746;2024-01-30T01:21:55;99540.56;;;-5.38;82.88
78986;BME280;68384;55.750;48.746;2024-01-30T01:22:57;99533.69;;;-5.37;82.96
78986;BME280;68384;55.750;48.746;2024-01-30T01:23:59;99539.69;;;-5.43;83.00
78986;BME280;68384;55.750;48.746;2024-01-30T01:25:01;99539.69;;;-5.43;82.92
78986;BME280;68384;55.750;48.746;2024-01-30T01:26:05;99543.16;;;-5.42;82.92
78986;BME280;68384;55.750;48.746;2024-01-30T01:27:09;99542.28;;;-5.44;82.92
78986;BME280;68384;55.750;48.746;2024-01-30T01:28:11;99533.72;;;-5.46;82.92
78986;BME280;68384;55.750;48.746;2024-01-30T01:29:13;99532.88;;;-5.48;83.33
78986;BME280;68384;55.750;48.746;2024-01-30T01:30:17;99535.44;;;-5.45;83.25
78986;BME280;68384;55.750;48.746;2024-01-30T01:31:27;99532.00;;;-5.47;83.80
78986;BME280;68384;55.750;48.746;2024-01-30T01:32:32;99525.94;;;-5.45;82.97
78986;BME280;68384;55.750;48.746;2024-01-30T01:33:34;99521.66;;;-5.44;83.04
78986;BME280;68384;55.750;48.746;2024-01-30T01:34:36;99512.22;;;-5.45;83.57
78986;BME280;68384;55.750;48.746;2024-01-30T01:35:38;99519.94;;;-5.44;82.84
78986;BME280;68384;55.750;48.746;2024-01-30T01:36:41;99516.50;;;-5.44;83.21
78986;BME280;68384;55.750;48.746;2024-01-30T01:37:43;99509.59;;;-5.42;82.95
78986;BME280;68384;55.750;48.746;2024-01-30T01:38:46;99516.50;;;-5.44;83.33
78986;BME280;68384;55.750;48.746;2024-01-30T01:39:48;99511.38;;;-5.46;83.48
78986;BME280;68384;55.750;48.746;2024-01-30T01:40:50;99519.06;;;-5.43;83.03
78986;BME280;68384;55.750;48.746;2024-01-30T01:41:52;99503.59;;;-5.44;82.81
78986;BME280;68384;55.750;48.746;2024-01-30T01:42:55;99513.91;;;-5.43;82.82
78986;BME280;68384;55.750;48.746;2024-01-30T01:43:58;99509.59;;;-5.44;82.41
78986;BME280;68384;55.750;48.746;2024-01-30T01:45:01;99513.03;;;-5.43;82.76
78986;BME280;68384;55.750;48.746;2024-01-30T01:46:03;99508.78;;;-5.46;82.47
78986;BME280;68384;55.750;48.746;2024-01-30T01:47:06;99494.16;;;-5.51;82.90
78986;BME280;68384;55.750;48.746;2024-01-30T01:48:08;99497.59;;;-5.49;82.89
78986;BME280;68384;55.750;48.746;2024-01-30T01:49:11;99499.34;;;-5.51;82.84
78986;BME280;68384;55.750;48.746;2024-01-30T01:50:15;99499.34;;;-5.51;82.99
78986;BME280;68384;55.750;48.746;2024-01-30T01:51:21;99495.88;;;-5.50;83.05
78986;BME280;68384;55.750;48.746;2024-01-30T01:52:24;99501.91;;;-5.51;82.97
78986;BME280;68384;55.750;48.746;2024-01-30T01:53:26;99497.63;;;-5.56;82.95
78986;BME280;68384;55.750;48.746;2024-01-30T01:54:29;99483.88;;;-5.58;82.58
78986;BME280;68384;55.750;48.746;2024-01-30T01:55:31;99493.31;;;-5.57;83.12
78986;BME280;68384;55.750;48.746;2024-01-30T01:56:34;99485.59;;;-5.60;83.23
78986;BME280;68384;55.750;48.746;2024-01-30T01:57:37;99480.44;;;-5.60;82.68
78986;BME280;68384;55.750;48.746;2024-01-30T01:58:40;99489.88;;;-5.59;82.41
78986;BME280;68384;55.750;48.746;2024-01-30T01:59:43;99477.84;;;-5.60;82.63
78986;BME280;68384;55.750;48.746;2024-01-30T02:00:46;99479.56;;;-5.60;82.62
78986;BME280;68384;55.750;48.746;2024-01-30T02:01:48;99455.50;;;-5.59;82.57
78986;BME280;68384;55.750;48.746;2024-01-30T02:02:51;99476.13;;;-5.61;82.39
78986;BME280;68384;55.750;48.746;2024-01-30T02:03:56;99468.41;;;-5.62;83.38
78986;BME280;68384;55.750;48.746;2024-01-30T02:04:58;99472.69;;;-5.63;83.15
78986;BME280;68384;55.750;48.746;2024-01-30T02:06:02;99460.69;;;-5.70;83.34
78986;BME280;68384;55.750;48.746;2024-01-30T02:07:04;99459.84;;;-5.67;83.11
78986;BME280;68384;55.750;48.746;2024-01-30T02:08:08;99460.69;;;-5.68;82.51
78986;BME280;68384;55.750;48.746;2024-01-30T02:09:10;99444.38;;;-5.73;83.28
78986;BME280;68384;55.750;48.746;2024-01-30T02:10:13;99459.84;;;-5.72;83.18
78986;BME280;68384;55.750;48.746;2024-01-30T02:11:15;99465.00;;;-5.72;83.78
78986;BME280;68384;55.750;48.746;2024-01-30T02:12:18;99461.56;;;-5.74;83.67
78986;BME280;68384;55.750;48.746;2024-01-30T02:13:21;99457.28;;;-5.75;83.72
78986;BME280;68384;55.750;48.746;2024-01-30T02:14:24;99458.13;;;-5.71;83.87
78986;BME280;68384;55.750;48.746;2024-01-30T02:15:30;99457.25;;;-5.72;82.75
78986;BME280;68384;55.750;48.746;2024-01-30T02:16:33;99458.13;;;-5.71;83.26
78986;BME280;68384;55.750;48.746;2024-01-30T02:17:36;99452.09;;;-5.72;83.55
78986;BME280;68384;55.750;48.746;2024-01-30T02:18:38;99459.84;;;-5.72;83.52
78986;BME280;68384;55.750;48.746;2024-01-30T02:19:52;99474.47;;;-5.72;83.91
78986;BME280;68384;55.750;48.746;2024-01-30T02:20:56;99459.84;;;-5.75;83.88
78986;BME280;68384;55.750;48.746;2024-01-30T02:22:00;99466.72;;;-5.74;83.84
78986;BME280;68384;55.750;48.746;2024-01-30T02:23:03;99465.00;;;-5.75;84.02
78986;BME280;68384;55.750;48.746;2024-01-30T02:24:06;99468.44;;;-5.77;83.56
78986;BME280;68384;55.750;48.746;2024-01-30T02:25:08;99457.28;;;-5.76;83.91
78986;BME280;68384;55.750;48.746;2024-01-30T02:26:10;99460.69;;;-5.71;84.28
78986;BME280;68384;55.750;48.746;2024-01-30T02:27:14;99458.13;;;-5.76;83.50
78986;BME280;68384;55.750;48.746;2024-01-30T02:28:16;99461.56;;;-5.72;84.26
78986;BME280;68384;55.750;48.746;2024-01-30T02:29:18;99465.88;;;-5.74;84.06
78986;BME280;68384;55.750;48.746;2024-01-30T02:30:20;99462.41;;;-5.73;83.96
78986;BME280;68384;55.750;48.746;2024-01-30T02:31:25;99461.56;;;-5.74;84.09
78986;BME280;68384;55.750;48.746;2024-01-30T02:32:27;99461.56;;;-5.74;83.92
78986;BME280;68384;55.750;48.746;2024-01-30T02:33:30;99457.28;;;-5.76;83.95
78986;BME280;68384;55.750;48.746;2024-01-30T02:34:32;99460.72;;;-5.77;84.23
78986;BME280;68384;55.750;48.746;2024-01-30T02:35:34;99469.31;;;-5.77;84.38
78986;BME280;68384;55.750;48.746;2024-01-30T02:36:37;99456.41;;;-5.75;83.75
78986;BME280;68384;55.750;48.746;2024-01-30T02:37:39;99454.69;;;-5.78;84.52
78986;BME280;68384;55.750;48.746;2024-01-30T02:38:41;99447.81;;;-5.79;84.06
78986;BME280;68384;55.750;48.746;2024-01-30T02:39:43;99461.56;;;-5.78;83.88
78986;BME280;68384;55.750;48.746;2024-01-30T02:40:45;99464.16;;;-5.75;83.82
78986;BME280;68384;55.750;48.746;2024-01-30T02:41:47;99452.13;;;-5.78;83.91
78986;BME280;68384;55.750;48.746;2024-01-30T02:42:50;99456.41;;;-5.77;84.32
78986;BME280;68384;55.750;48.746;2024-01-30T02:43:52;99448.69;;;-5.81;84.01
78986;BME280;68384;55.750;48.746;2024-01-30T02:44:54;99448.72;;;-5.84;84.16
78986;BME280;68384;55.750;48.746;2024-01-30T02:45:56;99453.84;;;-5.78;84.21
78986;BME280;68384;55.750;48.746;2024-01-30T02:47:00;99441.81;;;-5.78;84.46
78986;BME280;68384;55.750;48.746;2024-01-30T02:48:02;99461.56;;;-5.78;83.97
78986;BME280;68384;55.750;48.746;2024-01-30T02:49:04;99453.84;;;-5.78;84.38
78986;BME280;68384;55.750;48.746;2024-01-30T02:50:07;99452.13;;;-5.76;84.37
78986;BME280;68384;55.750;48.746;2024-01-30T02:51:09;99461.56;;;-5.77;84.05
78986;BME280;68384;55.750;48.746;2024-01-30T02:52:12;99450.41;;;-5.77;84.22
78986;BME280;68384;55.750;48.746;2024-01-30T02:53:14;99452.97;;;-5.79;83.70
78986;BME280;68384;55.750;48.746;2024-01-30T02:54:16;99449.53;;;-5.75;84.36
78986;BME280;68384;55.750;48.746;2024-01-30T02:55:18;99446.09;;;-5.74;83.91
78986;BME280;68384;55.750;48.746;2024-01-30T02:56:20;99454.69;;;-5.72;83.85
78986;BME280;68384;55.750;48.746;2024-01-30T02:57:23;99456.41;;;-5.71;83.52
78986;BME280;68384;55.750;48.746;2024-01-30T02:58:25;99456.41;;;-5.71;84.38
78986;BME280;68384;55.750;48.746;2024-01-30T02:59:27;99447.81;;;-5.70;83.76
78986;BME280;68384;55.750;48.746;2024-01-30T03:00:29;99444.38;;;-5.69;83.88
78986;BME280;68384;55.750;48.746;2024-01-30T03:01:31;99455.53;;;-5.68;84.23
78986;BME280;68384;55.750;48.746;2024-01-30T03:02:34;99450.38;;;-5.65;83.72
78986;BME280;68384;55.750;48.746;2024-01-30T03:03:36;99450.38;;;-5.70;84.41
78986;BME280;68384;55.750;48.746;2024-01-30T03:04:41;99454.69;;;-5.69;84.41
78986;BME280;68384;55.750;48.746;2024-01-30T03:05:43;99459.84;;;-5.67;84.27
78986;BME280;68384;55.750;48.746;2024-01-30T03:06:45;99448.66;;;-5.68;84.43
78986;BME280;68384;55.750;48.746;2024-01-30T03:07:49;99456.41;;;-5.68;84.18
78986;BME280;68384;55.750;48.746;2024-01-30T03:08:52;99452.09;;;-5.72;84.58
78986;BME280;68384;55.750;48.746;2024-01-30T03:09:54;99460.69;;;-5.70;84.49
78986;BME280;68384;55.750;48.746;2024-01-30T03:10:57;99456.41;;;-5.74;84.51
78986;BME280;68384;55.750;48.746;2024-01-30T03:11:59;99458.13;;;-5.74;84.31
78986;BME280;68384;55.750;48.746;2024-01-30T03:13:03;99455.56;;;-5.77;84.83
78986;BME280;68384;55.750;48.746;2024-01-30T03:14:05;99463.28;;;-5.76;84.13
78986;BME280;68384;55.750;48.746;2024-01-30T03:15:07;99456.41;;;-5.77;84.83
78986;BME280;68384;55.750;48.746;2024-01-30T03:16:11;99455.56;;;-5.77;84.60
78986;BME280;68384;55.750;48.746;2024-01-30T03:17:14;99452.97;;;-5.79;84.59
78986;BME280;68384;55.750;48.746;2024-01-30T03:18:16;99454.69;;;-5.79;85.42
78986;BME280;68384;55.750;48.746;2024-01-30T03:19:18;99455.56;;;-5.82;84.63
78986;BME280;68384;55.750;48.746;2024-01-30T03:20:20;99454.69;;;-5.81;84.97
78986;BME280;68384;55.750;48.746;2024-01-30T03:21:23;99461.56;;;-5.80;85.30
78986;BME280;68384;55.750;48.746;2024-01-30T03:22:25;99463.28;;;-5.79;84.75
78986;BME280;68384;55.750;48.746;2024-01-30T03:23:27;99450.44;;;-5.83;85.06
78986;BME280;68384;55.750;48.746;2024-01-30T03:24:29;99450.41;;;-5.80;85.16
78986;BME280;68384;55.750;48.746;2024-01-30T03:25:31;99444.38;;;-5.81;85.17
78986;BME280;68384;55.750;48.746;2024-01-30T03:26:33;99445.25;;;-5.79;85.29
78986;BME280;68384;55.750;48.746;2024-01-30T03:27:35;99449.53;;;-5.81;84.79
78986;BME280;68384;55.750;48.746;2024-01-30T03:28:37;99448.69;;;-5.78;84.81
78986;BME280;68384;55.750;48.746;2024-01-30T03:29:40;99446.09;;;-5.77;85.13
78986;BME280;68384;55.750;48.746;2024-01-30T03:30:42;99446.09;;;-5.75;84.76
78986;BME280;68384;55.750;48.746;2024-01-30T03:31:44;99448.69;;;-5.75;85.38
78986;BME280;68384;55.750;48.746;2024-01-30T03:32:46;99442.66;;;-5.71;85.21
78986;BME280;68384;55.750;48.746;2024-01-30T03:33:49;99443.50;;;-5.71;85.13
78986;BME280;68384;55.750;48.746;2024-01-30T03:34:51;99430.63;;;-5.71;85.17
78986;BME280;68384;55.750;48.746;2024-01-30T03:35:53;99439.22;;;-5.72;85.63
78986;BME280;68384;55.750;48.746;2024-01-30T03:36:55;99439.22;;;-5.75;85.31
78986;BME280;68384;55.750;48.746;2024-01-30T03:37:59;99438.34;;;-5.72;85.34
78986;BME280;68384;55.750;48.746;2024-01-30T03:39:01;99431.47;;;-5.72;85.07
78986;BME280;68384;55.750;48.746;2024-01-30T03:40:04;99436.63;;;-5.76;85.55
78986;BME280;68384;55.750;48.746;2024-01-30T03:41:08;99436.63;;;-5.73;85.27
78986;BME280;68384;55.750;48.746;2024-01-30T03:42:10;99443.50;;;-5.74;85.96
78986;BME280;68384;55.750;48.746;2024-01-30T03:43:13;99432.34;;;-5.70;85.83
78986;BME280;68384;55.750;48.746;2024-01-30T03:44:15;99436.63;;;-5.70;85.44
78986;BME280;68384;55.750;48.746;2024-01-30T03:45:17;99434.06;;;-5.72;85.46
78986;BME280;68384;55.750;48.746;2024-01-30T03:46:21;99432.34;;;-5.73;85.39
78986;BME280;68384;55.750;48.746;2024-01-30T03:47:23;99433.19;;;-5.71;85.60
78986;BME280;68384;55.750;48.746;2024-01-30T03:48:26;99430.59;;;-5.68;84.85
78986;BME280;68384;55.750;48.746;2024-01-30T03:49:28;99433.19;;;-5.68;85.90
78986;BME280;68384;55.750;48.746;2024-01-30T03:50:30;99433.19;;;-5.68;85.18
78986;BME280;68384;55.750;48.746;2024-01-30T03:51:32;99424.59;;;-5.71;85.09
78986;BME280;68384;55.750;48.746;2024-01-30T03:52:34;99428.91;;;-5.78;85.30
78986;BME280;68384;55.750;48.746;2024-01-30T03:53:37;99432.34;;;-5.74;86.09
78986;BME280;68384;55.750;48.746;2024-01-30T03:54:39;99434.06;;;-5.70;85.84
78986;BME280;68384;55.750;48.746;2024-01-30T03:55:41;99434.06;;;-5.70;86.03
78986;BME280;68384;55.750;48.746;2024-01-30T03:56:43;99432.34;;;-5.68;85.59
78986;BME280;68384;55.750;48.746;2024-01-30T03:57:45;99430.63;;;-5.69;85.92
78986;BME280;68384;55.750;48.746;2024-01-30T03:58:47;99419.44;;;-5.73;85.67
78986;BME280;68384;55.750;48.746;2024-01-30T03:59:49;99427.19;;;-5.73;85.56
78986;BME280;68384;55.750;48.746;2024-01-30T04:00:52;99424.59;;;-5.71;86.04
78986;BME280;68384;55.750;48.746;2024-01-30T04:01:54;99426.31;;;-5.72;85.40
78986;BME280;68384;55.750;48.746;2024-01-30T04:02:57;99431.47;;;-5.73;85.38
78986;BME280;68384;55.750;48.746;2024-01-30T04:03:59;99427.19;;;-5.70;85.36
78986;BME280;68384;55.750;48.746;2024-01-30T04:05:01;99428.03;;;-5.71;85.68
78986;BME280;68384;55.750;48.746;2024-01-30T04:06:04;99424.59;;;-5.70;85.23
78986;BME280;68384;55.750;48.746;2024-01-30T04:07:06;99426.31;;;-5.70;85.65
78986;BME280;68384;55.750;48.746;2024-01-30T04:08:09;99425.47;;;-5.74;85.32
78986;BME280;68384;55.750;48.746;2024-01-30T04:09:14;99418.56;;;-5.70;85.54
78986;BME280;68384;55.750;48.746;2024-01-30T04:10:17;99411.72;;;-5.71;85.39
78986;BME280;68384;55.750;48.746;2024-01-30T04:11:19;99406.56;;;-5.71;85.45
78986;BME280;68384;55.750;48.746;2024-01-30T04:12:21;99403.13;;;-5.73;85.54
78986;BME280;68384;55.750;48.746;2024-01-30T04:13:24;99409.13;;;-5.71;86.02
78986;BME280;68384;55.750;48.746;2024-01-30T04:14:26;99404.84;;;-5.77;86.79
78986;BME280;68384;55.750;48.746;2024-01-30T04:15:28;99407.41;;;-5.71;86.06
78986;BME280;68384;55.750;48.746;2024-01-30T04:16:31;99397.09;;;-5.72;86.20
78986;BME280;68384;55.750;48.746;2024-01-30T04:17:33;99408.28;;;-5.72;85.80
78986;BME280;68384;55.750;48.746;2024-01-30T04:18:35;99406.56;;;-5.71;86.47
78986;BME280;68384;55.750;48.746;2024-01-30T04:19:38;99400.53;;;-5.69;86.31
78986;BME280;68384;55.750;48.746;2024-01-30T04:20:40;99395.38;;;-5.70;86.28
78986;BME280;68384;55.750;48.746;2024-01-30T04:21:43;99392.81;;;-5.75;85.78
78986;BME280;68384;55.750;48.746;2024-01-30T04:22:46;99388.50;;;-5.73;86.41
78986;BME280;68384;55.750;48.746;2024-01-30T04:23:48;99399.69;;;-5.72;86.37
78986;BME280;68384;55.750;48.746;2024-01-30T04:24:50;99394.50;;;-5.71;86.41
78986;BME280;68384;55.750;48.746;2024-01-30T04:25:53;99397.06;;;-5.66;85.76
78986;BME280;68384;55.750;48.746;2024-01-30T04:26:55;99394.50;;;-5.66;85.83
78986;BME280;68384;55.750;48.746;2024-01-30T04:27:57;99397.03;;;-5.63;86.26
78986;BME280;68384;55.750;48.746;2024-01-30T04:28:59;99397.06;;;-5.66;86.28
78986;BME280;68384;55.750;48.746;2024-01-30T04:30:01;99394.50;;;-5.68;85.79
78986;BME280;68384;55.750;48.746;2024-01-30T04:31:03;99393.66;;;-5.67;86.24
78986;BME280;68384;55.750;48.746;2024-01-30T04:32:06;99390.22;;;-5.67;87.21
78986;BME280;68384;55.750;48.746;2024-01-30T04:33:08;99378.19;;;-5.70;86.89
78986;BME280;68384;55.750;48.746;2024-01-30T04:34:10;99382.47;;;-5.70;86.75
78986;BME280;68384;55.750;48.746;2024-01-30T04:35:13;99380.75;;;-5.67;87.08
78986;BME280;68384;55.750;48.746;2024-01-30T04:36:15;99379.03;;;-5.66;86.75
78986;BME280;68384;55.750;48.746;2024-01-30T04:37:17;99381.59;;;-5.66;86.24
78986;BME280;68384;55.750;48.746;2024-01-30T04:38:20;99372.16;;;-5.66;87.20
78986;BME280;68384;55.750;48.746;2024-01-30T04:39:22;99381.56;;;-5.63;87.29
78986;BME280;68384;55.750;48.746;2024-01-30T04:40:24;99388.44;;;-5.62;87.50
78986;BME280;68384;55.750;48.746;2024-01-30T04:41:26;99396.22;;;-5.65;87.30
78986;BME280;68384;55.750;48.746;2024-01-30T04:42:33;99387.63;;;-5.64;87.64
78986;BME280;68384;55.750;48.746;2024-01-30T04:43:35;99390.16;;;-5.63;87.76
78986;BME280;68384;55.750;48.746;2024-01-30T04:44:38;99379.84;;;-5.63;87.17
78986;BME280;68384;55.750;48.746;2024-01-30T04:45:40;99393.59;;;-5.62;87.81
78986;BME280;68384;55.750;48.746;2024-01-30T04:46:42;99390.16;;;-5.63;87.67
78986;BME280;68384;55.750;48.746;2024-01-30T04:47:44;99390.16;;;-5.61;87.39
78986;BME280;68384;55.750;48.746;2024-01-30T04:48:48;99387.56;;;-5.61;87.36
78986;BME280;68384;55.750;48.746;2024-01-30T04:49:51;99387.59;;;-5.63;87.38
78986;BME280;68384;55.750;48.746;2024-01-30T04:50:53;99388.44;;;-5.61;87.49
78986;BME280;68384;55.750;48.746;2024-01-30T04:51:56;99392.75;;;-5.61;87.36
78986;BME280;68384;55.750;48.746;2024-01-30T04:52:59;99382.47;;;-5.66;87.31
78986;BME280;68384;55.750;48.746;2024-01-30T04:54:02;99387.63;;;-5.64;87.74
78986;BME280;68384;55.750;48.746;2024-01-30T04:55:04;99378.13;;;-5.62;87.65
78986;BME280;68384;55.750;48.746;2024-01-30T04:56:07;99385.91;;;-5.67;87.07
78986;BME280;68384;55.750;48.746;2024-01-30T04:57:09;99384.16;;;-5.63;87.79
78986;BME280;68384;55.750;48.746;2024-01-30T04:58:14;99379.03;;;-5.68;87.89
78986;BME280;68384;55.750;48.746;2024-01-30T04:59:16;99384.19;;;-5.68;87.64
78986;BME280;68384;55.750;48.746;2024-01-30T05:00:18;99384.19;;;-5.69;87.32
78986;BME280;68384;55.750;48.746;2024-01-30T05:01:20;99390.22;;;-5.67;87.77
78986;BME280;68384;55.750;48.746;2024-01-30T05:02:23;99387.63;;;-5.67;87.29
78986;BME280;68384;55.750;48.746;2024-01-30T05:03:25;99396.22;;;-5.67;87.20
78986;BME280;68384;55.750;48.746;2024-01-30T05:04:27;99385.03;;;-5.66;88.10
78986;BME280;68384;55.750;48.746;2024-01-30T05:05:30;99397.09;;;-5.69;87.63
78986;BME280;68384;55.750;48.746;2024-01-30T05:06:32;99391.94;;;-5.68;87.52
78986;BME280;68384;55.750;48.746;2024-01-30T05:07:34;99383.31;;;-5.65;87.47
78986;BME280;68384;55.750;48.746;2024-01-30T05:08:36;99386.75;;;-5.65;87.22
78986;BME280;68384;55.750;48.746;2024-01-30T05:09:39;99379.88;;;-5.67;87.11
78986;BME280;68384;55.750;48.746;2024-01-30T05:10:41;99385.03;;;-5.64;87.12
78986;BME280;68384;55.750;48.746;2024-01-30T05:11:43;99379.03;;;-5.65;87.19
78986;BME280;68384;55.750;48.746;2024-01-30T05:12:45;99379.88;;;-5.64;87.06
78986;BME280;68384;55.750;48.746;2024-01-30T05:13:47;99376.44;;;-5.65;87.27
78986;BME280;68384;55.750;48.746;2024-01-30T05:14:49;99379.84;;;-5.61;87.38
78986;BME280;68384;55.750;48.746;2024-01-30T05:15:52;99372.94;;;-5.59;86.89
78986;BME280;68384;55.750;48.746;2024-01-30T05:16:54;99374.66;;;-5.58;86.85
78986;BME280;68384;55.750;48.746;2024-01-30T05:17:56;99382.41;;;-5.57;87.03
78986;BME280;68384;55.750;48.746;2024-01-30T05:18:58;99383.25;;;-5.55;87.02
78986;BME280;68384;55.750;48.746;2024-01-30T05:20:04;99378.09;;;-5.53;86.76
78986;BME280;68384;55.750;48.746;2024-01-30T05:21:07;99372.94;;;-5.56;86.88
78986;BME280;68384;55.750;48.746;2024-01-30T05:22:09;99379.81;;;-5.54;86.76
78986;BME280;68384;55.750;48.746;2024-01-30T05:23:11;99375.50;;;-5.51;86.51
78986;BME280;68384;55.750;48.746;2024-01-30T05:24:13;99374.66;;;-5.52;87.12
78986;BME280;68384;55.750;48.746;2024-01-30T05:25:15;99383.25;;;-5.48;86.47
78986;BME280;68384;55.750;48.746;2024-01-30T05:26:19;99376.34;;;-5.46;86.61
78986;BME280;68384;55.750;48.746;2024-01-30T05:27:21;99371.19;;;-5.46;86.23